sim
Sign-in with your pilot id or email,
or register
Callsign
Passwort

Schedule Details

Flight Number: DLH2210
Departure: Munich Airport (EDDM) at 07:10
Arrival: Hamburg Airport (EDDH) at 08:30
Route: Lufthansa Passenger Schedule. Enter filed route here before submitting Pirep.

Weather Information
Getting current METAR information for EDDM 221450Z 04005KT 9999 FEW040 24/13 Q1011 NOSIG
Getting current METAR information for EDDH 221450Z 26006KT 200V290 CAVOK 24/11 Q1008 NOSIG

Schedule Frequency

Route Map